createdAt,value
2022-09-01T00:01:56.742Z,15.60
2022-09-01T00:04:27.357Z,15.60
2022-09-01T00:06:56.588Z,15.60
2022-09-01T00:09:25.364Z,15.70
2022-09-01T00:11:55.613Z,15.70
2022-09-01T00:14:29.956Z,15.70
2022-09-01T00:17:02.023Z,15.70
2022-09-01T00:19:30.692Z,15.70
2022-09-01T00:21:59.184Z,15.70
2022-09-01T00:24:28.084Z,15.70
2022-09-01T00:26:56.814Z,15.70
2022-09-01T00:29:26.549Z,15.70
2022-09-01T00:31:55.355Z,15.70
2022-09-01T00:34:25.062Z,15.70
2022-09-01T00:36:53.274Z,15.70
2022-09-01T00:39:21.524Z,15.70
2022-09-01T00:41:50.962Z,15.60
2022-09-01T00:44:23.934Z,15.60
2022-09-01T00:46:56.777Z,15.60
2022-09-01T00:49:28.769Z,15.60
2022-09-01T00:52:01.464Z,15.50
2022-09-01T00:54:32.355Z,15.50
2022-09-01T00:57:00.750Z,15.50
2022-09-01T00:59:29.333Z,15.40
2022-09-01T01:01:58.332Z,15.40
2022-09-01T01:04:27.973Z,15.40
2022-09-01T01:07:02.372Z,15.40
2022-09-01T01:09:34.312Z,15.40
2022-09-01T01:12:04.119Z,15.30
2022-09-01T01:14:32.561Z,15.30
2022-09-01T01:17:01.703Z,15.30
2022-09-01T01:19:55.423Z,15.30
2022-09-01T01:22:44.454Z,15.30
2022-09-01T01:25:14.192Z,15.20
2022-09-01T01:27:43.135Z,15.20
2022-09-01T01:30:13.113Z,15.20
2022-09-01T01:32:43.977Z,15.10
2022-09-01T01:35:15.085Z,15.10
2022-09-01T01:37:49.277Z,15.10
2022-09-01T01:40:22.880Z,15.00
2022-09-01T01:42:52.869Z,15.00
2022-09-01T01:45:23.430Z,14.90
2022-09-01T01:47:54.592Z,14.90
2022-09-01T01:50:23.848Z,14.90
2022-09-01T01:52:58.309Z,14.90
2022-09-01T01:55:31.339Z,14.90
2022-09-01T01:57:59.923Z,14.90
2022-09-01T02:00:30.560Z,14.80
2022-09-01T02:02:59.783Z,14.80
2022-09-01T02:05:29.728Z,14.80
2022-09-01T02:08:01.885Z,14.70
2022-09-01T02:10:33.251Z,14.70
2022-09-01T02:13:04.079Z,14.70
2022-09-01T02:15:38.404Z,14.60
2022-09-01T02:18:11.184Z,14.60
2022-09-01T02:20:40.742Z,14.60
2022-09-01T02:23:10.926Z,14.50
2022-09-01T02:26:05.162Z,14.50
2022-09-01T02:28:35.109Z,14.50
2022-09-01T02:31:04.044Z,14.50
2022-09-01T02:33:33.640Z,14.50
2022-09-01T02:36:02.863Z,14.30
2022-09-01T02:38:34.009Z,14.40
2022-09-01T02:41:05.029Z,14.40
2022-09-01T02:43:33.902Z,14.40
2022-09-01T02:46:03.228Z,14.40
2022-09-01T02:48:34.422Z,14.40
2022-09-01T02:51:03.322Z,14.30
2022-09-01T02:53:34.849Z,14.30
2022-09-01T02:56:09.526Z,14.30
2022-09-01T02:58:46.392Z,14.30
2022-09-01T03:01:17.295Z,14.30
2022-09-01T03:03:45.605Z,14.20
2022-09-01T03:06:14.860Z,14.20
2022-09-01T03:08:43.111Z,14.30
2022-09-01T03:11:13.485Z,14.30
2022-09-01T03:13:42.659Z,14.20
2022-09-01T03:16:11.556Z,14.10
2022-09-01T03:18:40.890Z,14.10
2022-09-01T03:21:09.785Z,14.00
2022-09-01T03:23:38.226Z,14.10
2022-09-01T03:26:06.666Z,14.10
2022-09-01T03:28:37.800Z,14.00
2022-09-01T03:31:06.419Z,14.00
2022-09-01T03:33:36.708Z,14.00
2022-09-01T03:36:05.345Z,13.90
2022-09-01T03:38:44.270Z,13.90
2022-09-01T03:41:13.522Z,13.80
2022-09-01T03:43:46.952Z,13.80
2022-09-01T03:46:20.429Z,13.80
2022-09-01T03:48:50.929Z,13.80
2022-09-01T03:51:19.889Z,13.70
2022-09-01T03:53:48.133Z,13.70
2022-09-01T03:56:16.922Z,13.70
2022-09-01T03:58:47.600Z,13.70
2022-09-01T04:01:16.275Z,13.70
2022-09-01T04:03:47.738Z,13.70
2022-09-01T04:06:18.789Z,13.70
2022-09-01T04:08:48.474Z,13.70
2022-09-01T04:11:18.975Z,13.60
2022-09-01T04:13:48.764Z,13.60
2022-09-01T04:16:35.283Z,13.60
2022-09-01T04:19:09.453Z,13.50
2022-09-01T04:21:39.193Z,13.60
2022-09-01T04:24:09.259Z,13.50
2022-09-01T04:26:38.691Z,13.50
2022-09-01T04:29:09.332Z,13.50
2022-09-01T04:31:38.842Z,13.50
2022-09-01T04:34:12.730Z,13.50
2022-09-01T04:36:41.753Z,13.50
2022-09-01T04:39:11.914Z,13.50
2022-09-01T04:41:43.093Z,13.40
2022-09-01T04:44:16.920Z,13.40
2022-09-01T04:46:46.674Z,13.50
2022-09-01T04:49:19.695Z,13.50
2022-09-01T04:51:53.259Z,13.50
2022-09-01T04:54:22.902Z,13.50
2022-09-01T04:56:52.814Z,13.60
2022-09-01T04:59:27.345Z,14.20
2022-09-01T05:01:55.808Z,15.00
2022-09-01T05:04:27.558Z,15.60
2022-09-01T05:07:00.009Z,15.70
2022-09-01T05:09:29.103Z,15.40
2022-09-01T05:11:57.963Z,15.20
2022-09-01T05:14:28.005Z,15.10
2022-09-01T05:16:58.673Z,14.90
2022-09-01T05:19:29.134Z,14.80
2022-09-01T05:21:58.463Z,14.70
2022-09-01T05:24:39.847Z,14.70
2022-09-01T05:27:10.739Z,14.80
2022-09-01T05:29:41.727Z,14.70
2022-09-01T05:32:11.405Z,14.70
2022-09-01T05:34:40.093Z,15.00
2022-09-01T05:37:37.797Z,14.90
2022-09-01T05:40:09.854Z,15.00
2022-09-01T05:42:41.314Z,15.20
2022-09-01T05:45:14.399Z,15.40
2022-09-01T05:47:42.622Z,15.50
2022-09-01T05:50:14.496Z,15.30
2022-09-01T05:52:44.746Z,15.20
2022-09-01T05:55:14.952Z,15.20
2022-09-01T05:57:48.184Z,15.20
2022-09-01T06:00:20.262Z,15.20
2022-09-01T06:02:50.182Z,15.20
2022-09-01T06:05:19.084Z,15.30
2022-09-01T06:07:47.330Z,15.40
2022-09-01T06:10:16.077Z,15.40
2022-09-01T06:12:48.717Z,15.40
2022-09-01T06:15:18.796Z,15.60
2022-09-01T06:17:47.393Z,15.80
2022-09-01T06:20:18.406Z,15.90
2022-09-01T06:22:47.946Z,15.80
2022-09-01T06:25:17.567Z,15.70
2022-09-01T06:27:46.248Z,15.70
2022-09-01T06:30:23.045Z,15.90
2022-09-01T06:32:53.516Z,16.00
2022-09-01T06:35:25.309Z,15.90
2022-09-01T06:37:54.508Z,15.90
2022-09-01T06:40:25.627Z,15.90
2022-09-01T06:42:56.435Z,16.20
2022-09-01T06:45:26.345Z,16.30
2022-09-01T06:48:00.231Z,16.30
2022-09-01T06:53:38.963Z,16.30
2022-09-01T06:56:09.188Z,16.30
2022-09-01T06:58:38.479Z,16.40
2022-09-01T07:01:16.169Z,16.40
2022-09-01T07:03:47.777Z,16.40
2022-09-01T07:09:37.829Z,16.90
2022-09-01T07:17:34.873Z,17.00
2022-09-01T07:23:04.434Z,16.90
2022-09-01T07:28:39.842Z,17.00
2022-09-01T07:39:55.426Z,17.40
2022-09-01T07:45:47.434Z,18.10
2022-09-01T07:49:01.201Z,18.20
2022-09-01T07:55:12.732Z,17.80
2022-09-01T07:57:47.675Z,17.50
2022-09-01T08:00:17.614Z,17.20
2022-09-01T08:02:48.093Z,17.20
2022-09-01T08:05:23.119Z,17.10
2022-09-01T08:07:52.516Z,17.20
2022-09-01T08:10:22.809Z,17.10
2022-09-01T08:12:56.596Z,17.20
2022-09-01T08:18:18.780Z,17.40
2022-09-01T08:20:48.582Z,17.60
2022-09-01T08:23:20.025Z,17.80
2022-09-01T08:26:00.616Z,17.90
2022-09-01T08:29:05.306Z,18.00
2022-09-01T08:31:55.034Z,18.00
2022-09-01T08:37:47.447Z,18.00
2022-09-01T08:40:56.066Z,18.30
2022-09-01T08:43:29.620Z,18.30
2022-09-01T08:46:20.596Z,18.30
2022-09-01T08:51:46.106Z,18.60
2022-09-01T08:54:29.283Z,18.60
2022-09-01T08:57:06.266Z,18.60
2022-09-01T09:00:12.656Z,18.70
2022-09-01T09:02:45.323Z,18.80
2022-09-01T09:05:24.850Z,18.60
2022-09-01T09:08:10.073Z,18.60
2022-09-01T09:10:49.895Z,18.80
2022-09-01T09:13:23.094Z,19.10
2022-09-01T09:16:07.415Z,19.10
2022-09-01T09:18:40.638Z,18.90
2022-09-01T09:21:10.904Z,18.90
2022-09-01T09:23:57.995Z,18.90
2022-09-01T09:26:42.256Z,18.80
2022-09-01T09:29:11.756Z,18.80
2022-09-01T09:31:45.916Z,18.90
2022-09-01T09:34:29.816Z,19.10
2022-09-01T09:36:58.153Z,19.00
2022-09-01T09:39:29.481Z,19.00
2022-09-01T09:42:11.916Z,19.00
2022-09-01T09:44:44.343Z,19.20
2022-09-01T09:47:43.704Z,19.50
2022-09-01T09:50:20.427Z,19.80
2022-09-01T09:52:51.403Z,20.10
2022-09-01T09:55:25.093Z,20.40
2022-09-01T09:57:57.677Z,20.50
2022-09-01T10:00:27.590Z,20.80
2022-09-01T10:03:08.059Z,20.90
2022-09-01T10:05:43.282Z,21.10
2022-09-01T10:08:15.081Z,21.00
2022-09-01T10:10:56.358Z,20.90
2022-09-01T10:13:32.610Z,21.10
2022-09-01T10:16:03.718Z,21.10
2022-09-01T10:18:36.706Z,20.90
2022-09-01T10:21:09.321Z,21.20
2022-09-01T10:23:39.098Z,21.00
2022-09-01T10:26:12.872Z,21.10
2022-09-01T10:28:49.620Z,21.10
2022-09-01T10:31:20.504Z,21.20
2022-09-01T10:33:50.264Z,21.30
2022-09-01T10:36:37.951Z,21.30
2022-09-01T10:39:11.633Z,21.00
2022-09-01T10:41:59.659Z,20.90
2022-09-01T10:44:35.691Z,20.80
2022-09-01T10:47:13.588Z,20.90
2022-09-01T10:49:57.736Z,21.10
2022-09-01T10:52:50.533Z,21.30
2022-09-01T10:55:24.867Z,21.20
2022-09-01T10:59:29.900Z,21.50
2022-09-01T11:04:00.689Z,21.60
2022-09-01T11:07:33.502Z,21.40
2022-09-01T11:10:11.902Z,21.50
2022-09-01T11:12:46.865Z,22.00
2022-09-01T11:15:33.551Z,22.40
2022-09-01T11:18:03.945Z,22.60
2022-09-01T11:20:34.807Z,22.70
2022-09-01T11:23:05.907Z,22.50
2022-09-01T11:25:39.962Z,22.20
2022-09-01T11:28:11.166Z,22.10
2022-09-01T11:30:52.166Z,22.10
2022-09-01T11:33:38.895Z,22.10
2022-09-01T11:36:13.935Z,22.30
2022-09-01T11:39:19.041Z,22.10
2022-09-01T11:41:57.459Z,22.00
2022-09-01T11:44:48.301Z,21.80
2022-09-01T11:47:18.805Z,21.80
2022-09-01T11:49:49.547Z,21.80
2022-09-01T11:52:20.675Z,21.90
2022-09-01T11:54:50.255Z,21.70
2022-09-01T11:57:20.376Z,21.50
2022-09-01T11:59:48.705Z,21.40
2022-09-01T12:02:23.222Z,21.40
2022-09-01T12:04:52.055Z,21.10
2022-09-01T12:07:36.642Z,21.10
2022-09-01T12:10:05.246Z,21.00
2022-09-01T12:12:35.521Z,21.10
2022-09-01T12:15:06.651Z,21.20
2022-09-01T12:17:53.632Z,21.20
2022-09-01T12:20:28.264Z,21.20
2022-09-01T12:23:18.601Z,21.10
2022-09-01T12:26:05.771Z,21.20
2022-09-01T12:28:36.193Z,21.20
2022-09-01T12:31:24.454Z,21.30
2022-09-01T12:33:54.159Z,21.40
2022-09-01T12:36:24.177Z,21.30
2022-09-01T12:38:53.215Z,21.20
2022-09-01T12:41:32.811Z,21.20
2022-09-01T12:44:16.988Z,21.30
2022-09-01T12:46:48.069Z,21.40
2022-09-01T12:49:20.247Z,21.50
2022-09-01T12:51:49.040Z,21.50
2022-09-01T12:54:26.523Z,21.40
2022-09-01T12:56:56.152Z,21.40
2022-09-01T12:59:35.832Z,21.60
2022-09-01T13:02:28.039Z,21.50
2022-09-01T13:05:14.211Z,21.50
2022-09-01T13:07:44.487Z,21.50
2022-09-01T13:10:14.100Z,21.50
2022-09-01T13:12:43.440Z,21.60
2022-09-01T13:17:43.777Z,21.70
2022-09-01T13:20:13.100Z,21.70
2022-09-01T13:22:44.871Z,21.70
2022-09-01T13:25:16.321Z,21.60
2022-09-01T13:27:44.988Z,21.70
2022-09-01T13:30:15.720Z,21.80
2022-09-01T13:35:33.060Z,22.00
2022-09-01T13:38:01.369Z,22.40
2022-09-01T13:40:31.233Z,22.70
2022-09-01T13:42:59.504Z,22.80
2022-09-01T13:45:28.846Z,22.60
2022-09-01T13:53:35.456Z,22.60
2022-09-01T13:56:05.317Z,22.70
2022-09-01T13:58:33.529Z,22.90
2022-09-01T14:01:02.201Z,22.80
2022-09-01T14:03:32.369Z,23.00
2022-09-01T14:06:00.542Z,23.10
2022-09-01T14:08:28.765Z,22.90
2022-09-01T14:10:57.767Z,22.70
2022-09-01T14:13:27.768Z,22.50
2022-09-01T14:15:56.465Z,22.40
2022-09-01T14:18:24.979Z,22.30
2022-09-01T14:20:57.152Z,22.30
2022-09-01T14:23:25.319Z,22.30
2022-09-01T14:25:53.639Z,22.20
2022-09-01T14:28:23.865Z,21.90
2022-09-01T14:33:24.612Z,21.80
2022-09-01T14:35:52.944Z,21.70
2022-09-01T14:38:22.309Z,21.70
2022-09-01T14:40:52.206Z,21.70
2022-09-01T14:43:20.868Z,21.70
2022-09-01T14:45:49.349Z,21.70
2022-09-01T14:48:20.922Z,21.80
2022-09-01T14:50:51.152Z,21.90
2022-09-01T14:53:20.263Z,22.00
2022-09-01T14:55:51.486Z,22.10
2022-09-01T14:58:24.145Z,22.30
2022-09-01T15:00:52.577Z,22.20
2022-09-01T15:03:23.006Z,22.30
2022-09-01T15:05:52.399Z,22.30
2022-09-01T15:08:21.739Z,22.30
2022-09-01T15:10:50.232Z,22.30
2022-09-01T15:13:18.551Z,22.30
2022-09-01T15:15:47.035Z,22.40
2022-09-01T15:18:15.475Z,22.30
2022-09-01T15:20:48.810Z,22.40
2022-09-01T15:23:19.710Z,22.40
2022-09-01T15:25:48.206Z,22.50
2022-09-01T15:28:16.486Z,22.40
2022-09-01T15:30:46.520Z,22.30
2022-09-01T15:33:16.032Z,22.40
2022-09-01T15:35:46.394Z,22.50
2022-09-01T15:38:17.408Z,22.40
2022-09-01T15:40:58.550Z,22.50
2022-09-01T15:43:28.091Z,22.50
2022-09-01T15:45:58.421Z,22.40
2022-09-01T15:48:27.124Z,22.30
2022-09-01T15:51:02.194Z,22.40
2022-09-01T15:53:30.432Z,22.40
2022-09-01T15:55:59.924Z,22.40
2022-09-01T15:58:34.312Z,22.50
2022-09-01T16:01:13.099Z,22.40
2022-09-01T16:03:41.690Z,22.20
2022-09-01T16:06:14.859Z,22.00
2022-09-01T16:08:43.346Z,22.00
2022-09-01T16:11:13.064Z,22.00
2022-09-01T16:13:42.708Z,22.00
2022-09-01T16:16:15.891Z,22.00
2022-09-01T16:18:47.963Z,21.90
2022-09-01T16:21:21.069Z,21.70
2022-09-01T16:23:51.033Z,21.60
2022-09-01T16:26:20.575Z,21.70
2022-09-01T16:28:50.032Z,21.70
2022-09-01T16:31:21.369Z,21.70
2022-09-01T16:33:51.556Z,21.60
2022-09-01T16:36:28.396Z,21.70
2022-09-01T16:38:59.675Z,21.60
2022-09-01T16:41:42.505Z,21.50
2022-09-01T16:44:16.945Z,21.40
2022-09-01T16:46:48.065Z,21.40
2022-09-01T16:49:20.422Z,21.30
2022-09-01T16:51:56.814Z,21.30
2022-09-01T16:54:32.035Z,21.20
2022-09-01T16:57:04.795Z,21.20
2022-09-01T16:59:36.744Z,21.20
2022-09-01T17:02:09.920Z,21.20
2022-09-01T17:04:41.690Z,21.20
2022-09-01T17:07:14.708Z,21.10
2022-09-01T17:09:44.419Z,21.10
2022-09-01T17:12:20.181Z,21.10
2022-09-01T17:14:52.207Z,21.00
2022-09-01T17:17:22.395Z,20.90
2022-09-01T17:19:54.484Z,20.90
2022-09-01T17:22:24.364Z,20.90
2022-09-01T17:24:54.933Z,20.80
2022-09-01T17:27:26.663Z,20.70
2022-09-01T17:29:57.235Z,20.60
2022-09-01T17:32:36.115Z,20.60
2022-09-01T17:35:11.373Z,20.40
2022-09-01T17:37:45.315Z,20.40
2022-09-01T17:40:17.236Z,20.30
2022-09-01T17:42:52.812Z,20.20
2022-09-01T17:45:29.197Z,20.20
2022-09-01T17:48:01.296Z,20.10
2022-09-01T17:50:34.754Z,20.00
2022-09-01T17:53:10.054Z,20.00
2022-09-01T17:55:47.255Z,19.90
2022-09-01T17:58:20.933Z,19.80
2022-09-01T18:00:53.045Z,19.80
2022-09-01T18:03:45.757Z,19.70
2022-09-01T18:06:18.761Z,19.60
2022-09-01T18:08:50.523Z,19.50
2022-09-01T18:11:23.291Z,19.40
2022-09-01T18:13:54.820Z,19.40
2022-09-01T18:16:25.999Z,19.30
2022-09-01T18:18:54.914Z,19.30
2022-09-01T18:21:25.584Z,19.20
2022-09-01T18:23:59.323Z,19.10
2022-09-01T18:26:29.842Z,19.10
2022-09-01T18:28:58.635Z,19.10
2022-09-01T18:31:38.017Z,19.00
2022-09-01T18:34:09.567Z,19.00
2022-09-01T18:36:44.347Z,18.90
2022-09-01T18:39:17.215Z,18.90
2022-09-01T18:41:51.578Z,18.80
2022-09-01T18:44:26.394Z,18.80
2022-09-01T18:46:56.716Z,18.70
2022-09-01T18:49:28.574Z,18.60
2022-09-01T18:52:04.861Z,18.70
2022-09-01T18:54:40.052Z,18.60
2022-09-01T18:57:09.339Z,18.50
2022-09-01T18:59:45.693Z,18.50
2022-09-01T19:02:22.462Z,18.50
2022-09-01T19:04:51.854Z,18.40
2022-09-01T19:07:27.902Z,18.40
2022-09-01T19:10:02.279Z,18.40
2022-09-01T19:12:36.193Z,18.40
2022-09-01T19:15:10.037Z,18.30
2022-09-01T19:17:55.303Z,18.30
2022-09-01T19:20:26.988Z,18.20
2022-09-01T19:22:59.669Z,18.20
2022-09-01T19:25:37.169Z,18.20
2022-09-01T19:28:08.415Z,18.10
2022-09-01T19:30:41.723Z,18.10
2022-09-01T19:33:13.170Z,18.10
2022-09-01T19:35:44.189Z,18.00
2022-09-01T19:38:14.769Z,17.90
2022-09-01T19:40:45.028Z,17.80
2022-09-01T19:43:15.872Z,17.80
2022-09-01T19:46:02.615Z,17.70
2022-09-01T19:48:34.664Z,17.70
2022-09-01T19:51:05.551Z,17.60
2022-09-01T19:53:39.624Z,17.40
2022-09-01T19:56:13.349Z,17.70
2022-09-01T19:58:45.970Z,17.50
2022-09-01T20:01:17.219Z,17.50
2022-09-01T20:03:46.929Z,17.50
2022-09-01T20:06:19.193Z,17.40
2022-09-01T20:08:53.261Z,17.40
2022-09-01T20:11:30.162Z,17.40
2022-09-01T20:14:05.572Z,17.40
2022-09-01T20:16:38.713Z,17.40
2022-09-01T20:19:10.552Z,17.40
2022-09-01T20:21:41.374Z,17.30
2022-09-01T20:24:15.329Z,17.30
2022-09-01T20:26:47.364Z,17.20
2022-09-01T20:29:19.843Z,17.20
2022-09-01T20:31:51.023Z,17.10
2022-09-01T20:34:22.839Z,17.10
2022-09-01T20:36:53.399Z,17.10
2022-09-01T20:39:50.369Z,17.00
2022-09-01T20:42:22.694Z,17.10
2022-09-01T20:44:54.079Z,17.00
2022-09-01T20:47:23.533Z,16.90
2022-09-01T20:49:51.822Z,16.90
2022-09-01T20:52:27.319Z,16.90
2022-09-01T20:54:58.765Z,16.80
2022-09-01T20:57:34.093Z,16.80
2022-09-01T21:00:08.077Z,16.70
2022-09-01T21:02:41.712Z,16.70
2022-09-01T21:05:25.323Z,16.70
2022-09-01T21:08:00.873Z,16.70
2022-09-01T21:10:32.410Z,16.60
2022-09-01T21:13:07.313Z,16.60
2022-09-01T21:15:40.562Z,16.50
2022-09-01T21:18:17.443Z,16.50
2022-09-01T21:20:51.332Z,16.40
2022-09-01T21:23:21.212Z,16.40
2022-09-01T21:25:50.203Z,16.40
2022-09-01T21:28:21.749Z,16.40
2022-09-01T21:30:52.148Z,16.40
2022-09-01T21:33:40.172Z,16.40
2022-09-01T21:36:10.029Z,16.30
2022-09-01T21:38:38.368Z,16.30
2022-09-01T21:41:12.249Z,16.30
2022-09-01T21:43:45.370Z,16.30
2022-09-01T21:46:16.565Z,16.20
2022-09-01T21:48:45.092Z,16.20
2022-09-01T21:51:13.470Z,16.10
2022-09-01T21:53:41.784Z,16.20
2022-09-01T21:56:10.791Z,16.20
2022-09-01T21:58:39.642Z,16.10
2022-09-01T22:01:10.613Z,16.10
2022-09-01T22:03:43.595Z,16.00
2022-09-01T22:06:13.582Z,16.00
2022-09-01T22:08:42.056Z,15.90
2022-09-01T22:11:12.502Z,15.90
2022-09-01T22:13:42.038Z,15.90
2022-09-01T22:16:17.302Z,15.90
2022-09-01T22:18:45.919Z,15.80
2022-09-01T22:21:14.817Z,15.80
2022-09-01T22:23:43.927Z,15.80
2022-09-01T22:26:19.976Z,15.70
2022-09-01T22:29:07.106Z,15.70
2022-09-01T22:31:38.337Z,15.70
2022-09-01T22:34:07.326Z,15.70
2022-09-01T22:36:36.892Z,15.70
2022-09-01T22:39:06.226Z,15.70
2022-09-01T22:41:35.185Z,15.70
2022-09-01T22:44:04.222Z,15.60
2022-09-01T22:46:33.096Z,15.60
2022-09-01T22:49:03.224Z,15.50
2022-09-01T22:51:32.391Z,15.50
2022-09-01T22:54:01.007Z,15.50
2022-09-01T22:56:31.175Z,15.40
2022-09-01T22:59:01.911Z,15.40
2022-09-01T23:01:33.050Z,15.40
2022-09-01T23:04:04.865Z,15.40
2022-09-01T23:06:34.166Z,15.40
2022-09-01T23:09:03.225Z,15.30
2022-09-01T23:11:31.606Z,15.30
2022-09-01T23:14:00.135Z,15.30
2022-09-01T23:16:28.469Z,15.30
2022-09-01T23:18:57.465Z,15.20
2022-09-01T23:21:28.904Z,15.10
2022-09-01T23:23:58.630Z,15.10
2022-09-01T23:26:28.007Z,15.10
2022-09-01T23:28:56.561Z,15.00
2022-09-01T23:31:26.565Z,15.10
2022-09-01T23:33:55.614Z,15.10
2022-09-01T23:36:25.516Z,15.10
2022-09-01T23:38:57.024Z,15.00
2022-09-01T23:41:28.992Z,15.00
2022-09-01T23:43:57.474Z,14.90
2022-09-01T23:46:27.441Z,14.90
2022-09-01T23:48:56.355Z,14.80
2022-09-01T23:51:25.612Z,14.80
2022-09-01T23:53:55.535Z,14.80
2022-09-01T23:56:24.998Z,14.80
2022-09-01T23:58:53.365Z,14.80
